Time;durP1;ratioP1;P1;durP2;ratioP2;P2;SDS_P1;SDS_P2;PMS_P1;PMS_P2;Temp;Humidity;BMP_temperature;BMP_pressure;BME280_temperature;BME280_humidity;BME280_pressure;Samples;Min_cycle;Max_cycle;Signal;HPM_P1;HPM_P2
2021/07/02 00:01:12;;;;;;;12.55;8.50;;;;;;;;;;5133025;28;20194;-64
2021/07/02 00:03:41;;;;;;;11.15;8.25;;;;;;;;;;5133323;28;20209;-64
2021/07/02 00:06:09;;;;;;;11.20;8.18;;;;;;;;;;5132590;28;20745;-64
2021/07/02 00:08:37;;;;;;;12.70;8.65;;;;;;;;;;5133149;28;20199;-65
2021/07/02 00:11:05;;;;;;;10.88;7.93;;;;;;;;;;5133233;28;20949;-65
2021/07/02 00:13:33;;;;;;;12.85;9.07;;;;;;;;;;5133169;28;20205;-64
2021/07/02 00:16:03;;;;;;;10.15;7.78;;;;;;;;;;5132418;28;20223;-65
2021/07/02 00:18:31;;;;;;;10.52;7.80;;;;;;;;;;5136233;27;20202;-65
2021/07/02 00:20:59;;;;;;;12.07;8.27;;;;;;;;;;5136291;27;20685;-64
2021/07/02 00:23:27;;;;;;;11.23;7.82;;;;;;;;;;5136771;27;20195;-65
2021/07/02 00:25:56;;;;;;;10.60;7.65;;;;;;;;;;5136580;27;20503;-65
2021/07/02 00:28:26;;;;;;;12.00;8.10;;;;;;;;;;5136331;27;20220;-64
2021/07/02 00:30:54;;;;;;;10.55;7.57;;;;;;;;;;5136346;27;20183;-65
2021/07/02 00:33:23;;;;;;;11.57;8.13;;;;;;;;;;5136651;27;20198;-65
2021/07/02 00:35:52;;;;;;;10.40;7.55;;;;;;;;;;5136304;27;20218;-65
2021/07/02 00:38:20;;;;;;;11.27;8.27;;;;;;;;;;5136569;27;20209;-64
2021/07/02 00:40:48;;;;;;;11.25;8.00;;;;;;;;;;5136438;27;20198;-65
2021/07/02 00:43:16;;;;;;;12.55;8.20;;;;;;;;;;5136390;27;20200;-66
2021/07/02 00:45:44;;;;;;;11.75;8.63;;;;;;;;;;5135768;27;20195;-65
2021/07/02 00:48:12;;;;;;;12.80;9.18;;;;;;;;;;5136122;27;20206;-64
2021/07/02 00:50:42;;;;;;;13.50;8.38;;;;;;;;;;5135633;27;20226;-65
2021/07/02 00:53:10;;;;;;;10.95;8.05;;;;;;;;;;5136094;27;20651;-65
2021/07/02 00:55:38;;;;;;;11.80;8.30;;;;;;;;;;5135831;27;20221;-64
2021/07/02 00:58:06;;;;;;;13.93;8.48;;;;;;;;;;5136079;27;20194;-65
2021/07/02 01:00:35;;;;;;;14.40;8.70;;;;;;;;;;5135314;27;20210;-65
2021/07/02 01:03:03;;;;;;;15.27;9.48;;;;;;;;;;5135674;27;20206;-64
2021/07/02 01:05:31;;;;;;;12.32;9.30;;;;;;;;;;5135621;27;20229;-65
2021/07/02 01:08:01;;;;;;;13.70;9.55;;;;;;;;;;5135946;27;20201;-65
2021/07/02 01:10:29;;;;;;;13.73;9.70;;;;;;;;;;5136125;27;20199;-65
2021/07/02 01:12:57;;;;;;;13.35;9.50;;;;;;;;;;5135626;27;20214;-65
2021/07/02 01:15:26;;;;;;;13.43;9.52;;;;;;;;;;5135961;27;20219;-65
2021/07/02 01:17:54;;;;;;;17.92;10.40;;;;;;;;;;5136641;27;20198;-64
2021/07/02 01:20:23;;;;;;;16.58;10.05;;;;;;;;;;5135859;27;20568;-65
2021/07/02 01:22:52;;;;;;;16.02;10.13;;;;;;;;;;5135733;27;20244;-65
2021/07/02 01:25:21;;;;;;;15.35;10.52;;;;;;;;;;5135680;27;20191;-65
2021/07/02 01:27:49;;;;;;;17.02;10.00;;;;;;;;;;5135552;27;20202;-64
2021/07/02 01:30:18;;;;;;;18.42;10.48;;;;;;;;;;5134806;27;20290;-65
2021/07/02 01:32:46;;;;;;;18.60;10.93;;;;;;;;;;5135329;27;20211;-64
2021/07/02 01:35:15;;;;;;;15.43;10.80;;;;;;;;;;5134893;27;20215;-65
2021/07/02 01:37:43;;;;;;;16.98;11.35;;;;;;;;;;5135136;27;20729;-64
2021/07/02 01:40:13;;;;;;;19.70;11.63;;;;;;;;;;5135147;27;20205;-64
2021/07/02 01:42:41;;;;;;;16.63;10.13;;;;;;;;;;5135315;27;20549;-65
2021/07/02 01:45:10;;;;;;;19.17;11.77;;;;;;;;;;5135007;27;20553;-63
2021/07/02 01:47:38;;;;;;;18.80;11.73;;;;;;;;;;5134980;27;20205;-64
2021/07/02 01:50:07;;;;;;;15.40;10.45;;;;;;;;;;5134539;27;20237;-64
2021/07/02 01:52:35;;;;;;;18.33;11.13;;;;;;;;;;5135120;27;20195;-64
2021/07/02 01:55:05;;;;;;;18.35;11.32;;;;;;;;;;5135222;27;20233;-64
2021/07/02 01:57:34;;;;;;;19.45;11.45;;;;;;;;;;5135065;27;20198;-66
2021/07/02 02:00:02;;;;;;;19.13;11.70;;;;;;;;;;5134873;27;20282;-65
2021/07/02 02:02:30;;;;;;;18.55;11.93;;;;;;;;;;5135020;27;20203;-64
2021/07/02 02:04:59;;;;;;;17.67;11.90;;;;;;;;;;5134517;27;20278;-64
2021/07/02 02:07:27;;;;;;;19.40;12.23;;;;;;;;;;5134739;27;20277;-63
2021/07/02 02:09:55;;;;;;;16.58;11.77;;;;;;;;;;5135062;27;20195;-65
2021/07/02 02:12:23;;;;;;;18.90;11.77;;;;;;;;;;5134689;27;20214;-64
2021/07/02 02:14:52;;;;;;;22.33;12.25;;;;;;;;;;5134372;27;20201;-64
2021/07/02 02:17:21;;;;;;;18.10;11.40;;;;;;;;;;5134411;27;20203;-64
2021/07/02 02:19:49;;;;;;;20.15;12.57;;;;;;;;;;5134009;27;20688;-65
2021/07/02 02:22:17;;;;;;;22.95;12.38;;;;;;;;;;5134656;27;20195;-65
2021/07/02 02:24:45;;;;;;;19.15;11.32;;;;;;;;;;5134785;27;20207;-64
2021/07/02 02:27:13;;;;;;;17.08;11.85;;;;;;;;;;5134159;27;20201;-65
2021/07/02 02:29:42;;;;;;;18.13;12.45;;;;;;;;;;5133963;27;21007;-64
2021/07/02 02:32:11;;;;;;;19.75;11.85;;;;;;;;;;5133828;27;20572;-65
2021/07/02 02:34:39;;;;;;;18.90;11.63;;;;;;;;;;5133822;27;20198;-64
2021/07/02 02:37:07;;;;;;;21.08;11.20;;;;;;;;;;5134106;27;20215;-65
2021/07/02 02:39:35;;;;;;;20.17;12.45;;;;;;;;;;5134423;27;20202;-64
2021/07/02 02:42:04;;;;;;;24.98;12.13;;;;;;;;;;5133015;27;20203;-65
2021/07/02 02:44:32;;;;;;;17.95;11.45;;;;;;;;;;5134104;27;20199;-64
2021/07/02 02:47:00;;;;;;;19.17;12.38;;;;;;;;;;5134122;27;20205;-64
2021/07/02 02:49:30;;;;;;;18.42;11.60;;;;;;;;;;5133679;27;20254;-64
2021/07/02 02:51:58;;;;;;;19.10;12.48;;;;;;;;;;5134222;27;20199;-65
2021/07/02 02:54:26;;;;;;;20.95;11.52;;;;;;;;;;5134340;27;20197;-64
2021/07/02 02:57:07;;;;;;;18.40;11.85;;;;;;;;;;5133985;27;20237;-65
2021/07/02 02:59:36;;;;;;;19.92;12.05;;;;;;;;;;5133764;27;20582;-64
2021/07/02 03:02:09;;;;;;;18.05;12.20;;;;;;;;;;5133649;27;20191;-64
2021/07/02 03:04:39;;;;;;;19.20;11.85;;;;;;;;;;5133600;27;20197;-63
2021/07/02 03:07:08;;;;;;;17.65;11.98;;;;;;;;;;5133312;27;20571;-65
2021/07/02 03:09:36;;;;;;;22.52;11.68;;;;;;;;;;5133178;27;20195;-65
2021/07/02 03:12:04;;;;;;;18.63;12.23;;;;;;;;;;5133820;27;20229;-65
2021/07/02 03:14:33;;;;;;;17.92;11.75;;;;;;;;;;5133558;28;20568;-64
2021/07/02 03:17:01;;;;;;;21.33;12.05;;;;;;;;;;5133002;28;20223;-65
2021/07/02 03:19:29;;;;;;;17.50;10.95;;;;;;;;;;5133706;28;20205;-65
2021/07/02 03:21:58;;;;;;;19.90;11.88;;;;;;;;;;5133403;28;20202;-65
2021/07/02 03:24:27;;;;;;;17.42;12.00;;;;;;;;;;5133662;28;20201;-64
2021/07/02 03:26:55;;;;;;;21.02;12.93;;;;;;;;;;5133492;28;20195;-65
2021/07/02 03:29:23;;;;;;;17.75;11.65;;;;;;;;;;5133232;28;20195;-64
2021/07/02 03:31:51;;;;;;;19.65;12.35;;;;;;;;;;5132978;28;20206;-64
2021/07/02 03:34:19;;;;;;;19.60;12.77;;;;;;;;;;5133475;28;20201;-65
2021/07/02 03:36:47;;;;;;;18.85;12.88;;;;;;;;;;5133360;28;20237;-65
2021/07/02 03:39:17;;;;;;;21.52;12.80;;;;;;;;;;5133865;28;20203;-65
2021/07/02 03:41:45;;;;;;;20.83;13.13;;;;;;;;;;5133284;28;20707;-64
2021/07/02 03:44:13;;;;;;;19.98;12.43;;;;;;;;;;5133558;28;20209;-65
2021/07/02 03:46:41;;;;;;;17.48;12.10;;;;;;;;;;5133009;27;20226;-65
2021/07/02 03:49:10;;;;;;;19.77;12.27;;;;;;;;;;5132741;28;20665;-65
2021/07/02 03:51:38;;;;;;;16.13;11.45;;;;;;;;;;5133219;27;20597;-65
2021/07/02 03:54:06;;;;;;;18.08;12.65;;;;;;;;;;5137093;27;20210;-64
2021/07/02 03:56:35;;;;;;;17.35;12.25;;;;;;;;;;5137065;27;20310;-65
2021/07/02 03:59:04;;;;;;;17.58;12.18;;;;;;;;;;5137547;27;20199;-64
2021/07/02 04:01:33;;;;;;;19.30;11.45;;;;;;;;;;5137036;27;20295;-65
2021/07/02 04:04:01;;;;;;;18.65;11.85;;;;;;;;;;5137349;27;20198;-66
2021/07/02 04:06:30;;;;;;;19.02;12.95;;;;;;;;;;5137223;27;20216;-65
2021/07/02 04:08:58;;;;;;;20.83;13.07;;;;;;;;;;5137154;27;20202;-65
2021/07/02 04:11:26;;;;;;;22.52;13.25;;;;;;;;;;5136925;27;20203;-62
2021/07/02 04:13:55;;;;;;;19.30;12.70;;;;;;;;;;5138878;27;20666;-63
2021/07/02 04:16:23;;;;;;;20.63;12.52;;;;;;;;;;5136724;27;20223;-63
2021/07/02 04:18:52;;;;;;;21.40;13.25;;;;;;;;;;5136997;27;20198;-62
2021/07/02 04:21:20;;;;;;;21.77;13.88;;;;;;;;;;5136842;27;20225;-62
2021/07/02 04:23:48;;;;;;;18.10;12.93;;;;;;;;;;5136831;27;20205;-63
2021/07/02 04:26:16;;;;;;;17.20;12.55;;;;;;;;;;5136708;27;20191;-62
2021/07/02 04:28:44;;;;;;;20.52;13.68;;;;;;;;;;5136730;27;20230;-63
2021/07/02 04:31:14;;;;;;;19.90;13.00;;;;;;;;;;5136389;27;20202;-62
2021/07/02 04:33:42;;;;;;;20.98;13.35;;;;;;;;;;5136602;27;20241;-62
2021/07/02 04:36:10;;;;;;;20.60;13.02;;;;;;;;;;5136620;27;20201;-62
2021/07/02 04:38:38;;;;;;;23.65;13.38;;;;;;;;;;5136441;27;20224;-62
2021/07/02 04:41:07;;;;;;;19.58;13.63;;;;;;;;;;5136530;27;20198;-63
2021/07/02 04:43:35;;;;;;;21.70;13.57;;;;;;;;;;5136075;27;20547;-61
2021/07/02 04:46:03;;;;;;;18.13;12.82;;;;;;;;;;5135962;27;20211;-62
2021/07/02 04:48:44;;;;;;;20.70;13.77;;;;;;;;;;5136014;27;20179;-62
2021/07/02 04:51:12;;;;;;;20.92;13.05;;;;;;;;;;5135717;27;20231;-62
2021/07/02 04:53:42;;;;;;;21.08;13.45;;;;;;;;;;5136105;27;20198;-62
2021/07/02 04:56:12;;;;;;;19.65;12.75;;;;;;;;;;5135937;27;20271;-62
2021/07/02 04:58:41;;;;;;;20.83;13.10;;;;;;;;;;5136074;27;20198;-62
2021/07/02 05:01:09;;;;;;;18.88;13.65;;;;;;;;;;5135116;27;20347;-62
2021/07/02 05:03:37;;;;;;;21.33;13.52;;;;;;;;;;5132076;27;20202;-62
2021/07/02 05:06:08;;;;;;;21.67;14.27;;;;;;;;;;5135926;27;20203;-63
2021/07/02 05:08:36;;;;;;;21.05;13.35;;;;;;;;;;5135913;27;20189;-62
2021/07/02 05:11:04;;;;;;;19.40;14.00;;;;;;;;;;5136020;27;20201;-62
2021/07/02 05:13:32;;;;;;;20.50;13.05;;;;;;;;;;5135446;27;20203;-63
2021/07/02 05:16:01;;;;;;;18.77;14.23;;;;;;;;;;5135102;27;20823;-62
2021/07/02 05:18:29;;;;;;;19.98;14.30;;;;;;;;;;5135229;27;20264;-63
2021/07/02 05:20:57;;;;;;;20.33;14.30;;;;;;;;;;5135912;27;20199;-61
2021/07/02 05:23:27;;;;;;;17.58;13.88;;;;;;;;;;5135411;27;20209;-62
2021/07/02 05:25:55;;;;;;;21.88;14.48;;;;;;;;;;5135482;27;20206;-63
2021/07/02 05:28:23;;;;;;;23.13;14.40;;;;;;;;;;5135425;27;20194;-63
2021/07/02 05:30:51;;;;;;;20.25;13.82;;;;;;;;;;5135193;27;20573;-63
2021/07/02 05:33:19;;;;;;;21.17;14.20;;;;;;;;;;5134933;27;20293;-62
2021/07/02 05:35:48;;;;;;;18.13;13.02;;;;;;;;;;5135417;27;20634;-63
2021/07/02 05:38:16;;;;;;;22.00;14.25;;;;;;;;;;5135106;27;20221;-63
2021/07/02 05:40:46;;;;;;;19.90;14.25;;;;;;;;;;5135170;27;20201;-63
2021/07/02 05:43:14;;;;;;;22.15;13.35;;;;;;;;;;5135202;27;20198;-62
2021/07/02 05:45:43;;;;;;;19.83;13.88;;;;;;;;;;5135318;27;20198;-62
2021/07/02 05:48:16;;;;;;;21.45;13.35;;;;;;;;;;5134940;27;20281;-61
2021/07/02 05:50:44;;;;;;;18.80;12.63;;;;;;;;;;5135009;27;20237;-62
2021/07/02 05:53:12;;;;;;;19.65;13.10;;;;;;;;;;5135115;27;20201;-62
2021/07/02 05:55:41;;;;;;;17.20;11.75;;;;;;;;;;5135262;27;20199;-62
2021/07/02 05:58:12;;;;;;;19.35;13.35;;;;;;;;;;5135016;27;20217;-62
2021/07/02 06:00:41;;;;;;;20.63;13.55;;;;;;;;;;5134976;27;20183;-62
2021/07/02 06:03:09;;;;;;;22.27;12.95;;;;;;;;;;5134679;27;20195;-62
2021/07/02 06:05:37;;;;;;;22.50;13.35;;;;;;;;;;5134954;27;20194;-62
2021/07/02 06:08:06;;;;;;;20.38;12.55;;;;;;;;;;5134824;27;20281;-61
2021/07/02 06:10:34;;;;;;;19.63;12.55;;;;;;;;;;5134756;27;20205;-62
2021/07/02 06:13:02;;;;;;;20.05;12.95;;;;;;;;;;5134352;27;20214;-62
2021/07/02 06:15:32;;;;;;;19.48;12.30;;;;;;;;;;5134243;27;20202;-61
2021/07/02 06:18:07;;;;;;;14.65;11.43;;;;;;;;;;5133865;27;20207;-62
2021/07/02 06:20:36;;;;;;;15.68;12.05;;;;;;;;;;5134325;27;20195;-62
2021/07/02 06:23:04;;;;;;;17.02;12.63;;;;;;;;;;5134587;27;20209;-60
2021/07/02 06:25:32;;;;;;;16.80;11.95;;;;;;;;;;5134450;27;20199;-63
2021/07/02 06:28:01;;;;;;;20.63;13.60;;;;;;;;;;5134542;27;20199;-62
2021/07/02 06:30:29;;;;;;;17.75;12.70;;;;;;;;;;5134287;27;20221;-63
2021/07/02 06:32:58;;;;;;;14.43;11.27;;;;;;;;;;5133611;27;20199;-62
2021/07/02 06:35:26;;;;;;;15.80;12.15;;;;;;;;;;5134362;27;20224;-63
2021/07/02 06:37:54;;;;;;;15.85;11.48;;;;;;;;;;5133837;27;20310;-63
2021/07/02 06:40:23;;;;;;;17.55;12.80;;;;;;;;;;5134281;27;20202;-62
2021/07/02 06:42:51;;;;;;;14.05;11.40;;;;;;;;;;5133629;27;20201;-62
2021/07/02 06:45:19;;;;;;;14.90;11.75;;;;;;;;;;5132754;27;20208;-63
2021/07/02 06:47:55;;;;;;;15.05;10.68;;;;;;;;;;5132582;27;20297;-62
2021/07/02 06:50:25;;;;;;;16.52;11.68;;;;;;;;;;5133689;27;20244;-62
2021/07/02 06:52:54;;;;;;;14.38;11.07;;;;;;;;;;5134310;27;20202;-62
2021/07/02 06:55:22;;;;;;;17.77;11.27;;;;;;;;;;5133974;27;20198;-63
2021/07/02 06:57:50;;;;;;;16.90;11.40;;;;;;;;;;5133791;27;20215;-62
2021/07/02 07:00:19;;;;;;;15.32;10.48;;;;;;;;;;5133537;27;20195;-63
2021/07/02 07:02:48;;;;;;;14.27;11.00;;;;;;;;;;5133410;27;20733;-64
2021/07/02 07:05:16;;;;;;;16.75;11.75;;;;;;;;;;5133979;27;20598;-62
2021/07/02 07:07:46;;;;;;;13.70;10.88;;;;;;;;;;5133876;27;20270;-63
2021/07/02 07:10:15;;;;;;;12.90;10.07;;;;;;;;;;5133821;28;20331;-63
2021/07/02 07:12:43;;;;;;;14.40;10.40;;;;;;;;;;5133888;27;20199;-64
2021/07/02 07:15:13;;;;;;;13.55;10.75;;;;;;;;;;5133685;28;20194;-62
2021/07/02 07:17:41;;;;;;;14.18;10.40;;;;;;;;;;5133331;28;20227;-62
2021/07/02 07:20:10;;;;;;;15.93;9.85;;;;;;;;;;5133741;28;20232;-63
2021/07/02 07:22:38;;;;;;;11.90;10.07;;;;;;;;;;5133422;28;20238;-62
2021/07/02 07:25:09;;;;;;;13.25;9.52;;;;;;;;;;5133220;28;20262;-62
2021/07/02 07:27:37;;;;;;;13.13;9.02;;;;;;;;;;5134926;27;20199;-62
2021/07/02 07:30:06;;;;;;;16.05;10.05;;;;;;;;;;5136900;27;20202;-62
2021/07/02 07:32:37;;;;;;;11.73;9.73;;;;;;;;;;5136828;27;20646;-63
2021/07/02 07:35:15;;;;;;;14.50;10.32;;;;;;;;;;5137409;27;20255;-63
2021/07/02 07:37:44;;;;;;;14.30;10.05;;;;;;;;;;5137451;27;20205;-62
2021/07/02 07:40:14;;;;;;;13.38;10.43;;;;;;;;;;5137395;27;20194;-63
2021/07/02 07:42:42;;;;;;;12.63;9.75;;;;;;;;;;5137477;27;20189;-63
2021/07/02 07:45:11;;;;;;;13.90;9.75;;;;;;;;;;5137166;27;20609;-62
2021/07/02 07:47:39;;;;;;;11.77;9.57;;;;;;;;;;5136673;27;20290;-63
2021/07/02 07:50:09;;;;;;;12.77;9.57;;;;;;;;;;5136861;27;20226;-63
2021/07/02 07:52:44;;;;;;;15.77;9.27;;;;;;;;;;5136784;27;20679;-62
2021/07/02 07:55:17;;;;;;;12.48;9.45;;;;;;;;;;5136454;27;20550;-63
2021/07/02 07:57:46;;;;;;;14.18;9.38;;;;;;;;;;5137035;27;20286;-62
2021/07/02 08:00:15;;;;;;;9.80;8.48;;;;;;;;;;5136745;27;20210;-62
2021/07/02 08:02:44;;;;;;;13.95;8.63;;;;;;;;;;5136175;27;20303;-62
2021/07/02 08:05:13;;;;;;;10.90;8.80;;;;;;;;;;5136798;27;20256;-63
2021/07/02 08:07:42;;;;;;;10.02;8.75;;;;;;;;;;5137238;27;20209;-63
2021/07/02 08:10:11;;;;;;;11.30;8.80;;;;;;;;;;5137171;27;20194;-63
2021/07/02 08:12:41;;;;;;;10.23;8.07;;;;;;;;;;5137066;27;20251;-61
2021/07/02 08:15:12;;;;;;;8.45;7.07;;;;;;;;;;5137049;27;20298;-62
2021/07/02 08:17:41;;;;;;;10.23;8.25;;;;;;;;;;5136503;27;20199;-62
2021/07/02 08:20:10;;;;;;;11.70;8.70;;;;;;;;;;5136656;27;20211;-62
2021/07/02 08:22:39;;;;;;;10.23;9.10;;;;;;;;;;5136917;27;20230;-62
2021/07/02 08:25:09;;;;;;;10.00;7.82;;;;;;;;;;5136834;27;20621;-61
2021/07/02 08:30:21;;;;;;;9.20;7.40;;;;;;;;;;5135775;27;20182;-63
2021/07/02 08:32:49;;;;;;;10.88;8.10;;;;;;;;;;5136576;27;20198;-63
2021/07/02 08:35:21;;;;;;;12.63;7.88;;;;;;;;;;5136759;27;20289;-62
2021/07/02 08:37:51;;;;;;;10.63;8.43;;;;;;;;;;5135608;27;20281;-63
2021/07/02 08:40:19;;;;;;;10.07;7.90;;;;;;;;;;5134575;27;20289;-63
2021/07/02 08:42:48;;;;;;;9.98;8.30;;;;;;;;;;5135359;27;20213;-63
2021/07/02 08:45:16;;;;;;;12.30;8.50;;;;;;;;;;5114807;28;20203;-63
2021/07/02 08:47:46;;;;;;;10.85;8.52;;;;;;;;;;5114984;28;20665;-63
2021/07/02 08:50:15;;;;;;;10.55;7.95;;;;;;;;;;5114826;28;20227;-62
2021/07/02 08:52:43;;;;;;;10.95;8.73;;;;;;;;;;5114877;28;20689;-62
2021/07/02 08:55:13;;;;;;;12.75;8.85;;;;;;;;;;5114809;28;20647;-63
2021/07/02 08:57:41;;;;;;;10.20;8.43;;;;;;;;;;5115155;28;20593;-63
2021/07/02 09:00:11;;;;;;;10.18;7.72;;;;;;;;;;5115038;28;20221;-63
2021/07/02 09:02:40;;;;;;;9.15;8.02;;;;;;;;;;5114536;28;20207;-63
2021/07/02 09:05:29;;;;;;;9.15;7.63;;;;;;;;;;5114910;28;20269;-63
2021/07/02 09:07:57;;;;;;;12.25;8.18;;;;;;;;;;5114431;28;20675;-63
2021/07/02 09:10:32;;;;;;;11.02;8.95;;;;;;;;;;5114684;28;20191;-63
2021/07/02 09:13:00;;;;;;;8.95;8.05;;;;;;;;;;5114927;28;20199;-63
2021/07/02 09:15:29;;;;;;;11.55;7.78;;;;;;;;;;5115291;28;20207;-63
2021/07/02 09:17:58;;;;;;;10.45;8.70;;;;;;;;;;5115163;28;20210;-62
2021/07/02 09:20:29;;;;;;;10.02;8.45;;;;;;;;;;5115262;28;20223;-62
2021/07/02 09:22:58;;;;;;;10.98;8.88;;;;;;;;;;5114987;28;20190;-64
2021/07/02 09:25:27;;;;;;;10.23;8.50;;;;;;;;;;5114833;28;20234;-62
2021/07/02 09:27:57;;;;;;;11.98;9.85;;;;;;;;;;5115107;28;20290;-63
2021/07/02 09:30:26;;;;;;;11.70;9.57;;;;;;;;;;5114775;28;20195;-61
2021/07/02 09:32:58;;;;;;;13.80;9.07;;;;;;;;;;5114843;28;20188;-61
2021/07/02 09:35:32;;;;;;;10.38;8.38;;;;;;;;;;5114621;28;20623;-63
2021/07/02 09:38:02;;;;;;;10.77;9.23;;;;;;;;;;5114952;28;20180;-62
2021/07/02 09:40:31;;;;;;;11.25;8.75;;;;;;;;;;5114746;28;20226;-63
2021/07/02 09:43:00;;;;;;;9.38;7.53;;;;;;;;;;5116196;27;20209;-61
2021/07/02 09:45:29;;;;;;;10.73;8.35;;;;;;;;;;5134844;27;20772;-63
2021/07/02 09:47:57;;;;;;;13.40;9.55;;;;;;;;;;5134432;27;20190;-63
2021/07/02 09:50:29;;;;;;;11.82;8.63;;;;;;;;;;5133946;27;20318;-63
2021/07/02 09:52:59;;;;;;;9.80;8.73;;;;;;;;;;5123465;27;20603;-62
2021/07/02 09:55:28;;;;;;;10.27;8.68;;;;;;;;;;5113612;28;20183;-65
2021/07/02 09:58:07;;;;;;;12.10;9.55;;;;;;;;;;5113549;28;20192;-63
2021/07/02 10:00:36;;;;;;;14.63;9.68;;;;;;;;;;5131649;27;20674;-63
2021/07/02 10:03:06;;;;;;;10.82;8.80;;;;;;;;;;5133236;27;20671;-62
2021/07/02 10:05:45;;;;;;;12.30;9.68;;;;;;;;;;5133646;27;20202;-62
2021/07/02 10:08:15;;;;;;;10.55;9.02;;;;;;;;;;5133734;27;20273;-63
2021/07/02 10:10:43;;;;;;;13.15;9.70;;;;;;;;;;5133724;27;20238;-62
2021/07/02 10:13:11;;;;;;;13.20;9.10;;;;;;;;;;5133240;27;20299;-62
2021/07/02 10:15:42;;;;;;;10.50;9.07;;;;;;;;;;5132813;27;20585;-63
2021/07/02 10:18:13;;;;;;;11.90;8.10;;;;;;;;;;5133311;27;20663;-62
2021/07/02 10:20:42;;;;;;;11.82;8.73;;;;;;;;;;5133655;27;20203;-63
2021/07/02 10:23:12;;;;;;;11.98;8.40;;;;;;;;;;5133163;27;20203;-62
2021/07/02 10:25:43;;;;;;;9.90;8.07;;;;;;;;;;5133577;27;20199;-62
2021/07/02 10:28:12;;;;;;;9.48;8.05;;;;;;;;;;5133919;27;20556;-63
2021/07/02 10:30:41;;;;;;;9.65;7.93;;;;;;;;;;5133916;27;20199;-62
2021/07/02 10:33:10;;;;;;;8.57;7.72;;;;;;;;;;5134347;27;20199;-61
2021/07/02 10:35:44;;;;;;;10.80;7.75;;;;;;;;;;5133997;27;20198;-63
2021/07/02 10:38:12;;;;;;;7.88;7.07;;;;;;;;;;5133882;27;20278;-64
2021/07/02 10:40:42;;;;;;;10.40;7.45;;;;;;;;;;5134091;27;20340;-63
2021/07/02 10:43:12;;;;;;;9.35;7.90;;;;;;;;;;5134353;27;20252;-62
2021/07/02 10:46:00;;;;;;;8.82;7.93;;;;;;;;;;5133453;27;20289;-63
2021/07/02 10:48:43;;;;;;;9.15;7.03;;;;;;;;;;5133747;27;20288;-63
2021/07/02 10:51:34;;;;;;;10.45;7.57;;;;;;;;;;5133503;27;20222;-63
2021/07/02 10:54:18;;;;;;;11.48;8.05;;;;;;;;;;5133672;27;20183;-63
2021/07/02 10:57:00;;;;;;;7.97;7.10;;;;;;;;;;5133927;27;20262;-61
2021/07/02 10:59:44;;;;;;;8.13;6.93;;;;;;;;;;5133199;27;20932;-62
2021/07/02 11:02:18;;;;;;;9.15;7.20;;;;;;;;;;5131824;27;20673;-63
2021/07/02 11:04:48;;;;;;;8.40;7.40;;;;;;;;;;5132698;27;20200;-63
2021/07/02 11:07:31;;;;;;;7.95;7.15;;;;;;;;;;5132229;27;20205;-62
2021/07/02 11:10:00;;;;;;;9.07;6.63;;;;;;;;;;5132527;27;20197;-63
2021/07/02 11:12:30;;;;;;;10.25;7.32;;;;;;;;;;5133521;27;20295;-62
2021/07/02 11:15:08;;;;;;;7.22;6.47;;;;;;;;;;5132373;27;20269;-61
2021/07/02 11:17:37;;;;;;;8.07;7.25;;;;;;;;;;5132471;27;20208;-62
2021/07/02 11:20:25;;;;;;;8.23;6.60;;;;;;;;;;5132608;28;20297;-63
2021/07/02 11:22:57;;;;;;;7.15;5.90;;;;;;;;;;5132779;28;20321;-63
2021/07/02 11:25:28;;;;;;;6.40;5.80;;;;;;;;;;5132326;28;20673;-62
2021/07/02 11:28:01;;;;;;;8.60;6.70;;;;;;;;;;5132189;28;20202;-64
2021/07/02 11:30:34;;;;;;;9.45;6.55;;;;;;;;;;5129597;28;20294;-63
2021/07/02 11:33:03;;;;;;;7.43;6.72;;;;;;;;;;5132972;28;20244;-64
2021/07/02 11:35:32;;;;;;;8.32;6.40;;;;;;;;;;5132643;28;20219;-62
2021/07/02 11:38:01;;;;;;;7.97;6.40;;;;;;;;;;5132444;28;20228;-62
2021/07/02 11:40:30;;;;;;;8.00;6.75;;;;;;;;;;5133049;28;20214;-62
2021/07/02 11:43:20;;;;;;;7.97;6.80;;;;;;;;;;5133340;28;20194;-61
2021/07/02 11:45:51;;;;;;;7.10;6.40;;;;;;;;;;5133158;28;20183;-62
2021/07/02 11:48:29;;;;;;;7.60;6.90;;;;;;;;;;5133111;28;20215;-62
2021/07/02 11:50:58;;;;;;;6.53;5.75;;;;;;;;;;5132783;28;20689;-62
2021/07/02 11:53:30;;;;;;;7.05;6.32;;;;;;;;;;5133316;28;20297;-61
2021/07/02 11:56:02;;;;;;;7.30;6.50;;;;;;;;;;5133283;28;20221;-63
2021/07/02 11:58:32;;;;;;;6.95;6.25;;;;;;;;;;5133352;28;20278;-63
2021/07/02 12:01:01;;;;;;;7.90;5.97;;;;;;;;;;5112452;28;20302;-62
2021/07/02 12:03:30;;;;;;;7.25;6.50;;;;;;;;;;5112745;28;20210;-62
2021/07/02 12:05:58;;;;;;;6.60;6.00;;;;;;;;;;5112790;28;20199;-62
2021/07/02 12:08:27;;;;;;;7.43;6.63;;;;;;;;;;5112543;28;20299;-62
2021/07/02 12:10:56;;;;;;;7.82;7.07;;;;;;;;;;5112594;28;20196;-62
2021/07/02 12:13:25;;;;;;;6.57;5.88;;;;;;;;;;5114290;28;20195;-62
2021/07/02 12:16:05;;;;;;;6.82;6.15;;;;;;;;;;5115626;28;20203;-63
2021/07/02 12:18:34;;;;;;;8.40;7.60;;;;;;;;;;5115171;28;20179;-62
2021/07/02 12:21:04;;;;;;;8.10;7.30;;;;;;;;;;5115719;28;20250;-62
2021/07/02 12:23:34;;;;;;;6.78;6.18;;;;;;;;;;5115085;28;20183;-62
2021/07/02 12:26:16;;;;;;;7.35;6.65;;;;;;;;;;5115338;28;20198;-63
2021/07/02 12:28:52;;;;;;;7.25;6.55;;;;;;;;;;5115366;28;20198;-61
2021/07/02 12:31:21;;;;;;;7.55;6.78;;;;;;;;;;5115044;28;20282;-62
2021/07/02 12:33:50;;;;;;;7.35;6.65;;;;;;;;;;5115525;28;20234;-64
2021/07/02 12:36:18;;;;;;;7.57;6.72;;;;;;;;;;5115329;28;20195;-63
2021/07/02 12:39:07;;;;;;;7.55;6.85;;;;;;;;;;5115712;28;20200;-62
2021/07/02 12:41:36;;;;;;;7.40;6.70;;;;;;;;;;5114898;28;20868;-62
2021/07/02 12:44:05;;;;;;;8.52;7.55;;;;;;;;;;5125621;27;20199;-62
2021/07/02 12:46:35;;;;;;;7.30;6.57;;;;;;;;;;5135057;27;20298;-63
2021/07/02 12:49:23;;;;;;;6.20;5.60;;;;;;;;;;5135257;27;20187;-61
2021/07/02 12:54:47;;;;;;;7.75;6.78;;;;;;;;;;5136099;27;20631;-65
2021/07/02 12:54:52;;;;;;;8.77;6.68;;;;;;;;;;5136039;27;20275;-63
2021/07/02 12:57:21;;;;;;;6.35;5.75;;;;;;;;;;5136293;27;20293;-62
2021/07/02 12:59:50;;;;;;;7.65;6.13;;;;;;;;;;5135939;27;20305;-63
2021/07/02 13:02:34;;;;;;;5.95;5.43;;;;;;;;;;5136404;27;20265;-62
2021/07/02 13:05:07;;;;;;;7.63;5.97;;;;;;;;;;5136251;27;20218;-63
2021/07/02 13:07:52;;;;;;;5.97;5.38;;;;;;;;;;5136457;27;20209;-62
2021/07/02 13:10:21;;;;;;;7.38;6.20;;;;;;;;;;5136040;27;20198;-62
2021/07/02 13:13:16;;;;;;;6.80;6.03;;;;;;;;;;5136012;27;20570;-61
2021/07/02 13:15:57;;;;;;;6.93;5.95;;;;;;;;;;5079961;27;20285;-62
2021/07/02 13:18:27;;;;;;;10.70;6.35;;;;;;;;;;5135981;27;20202;-62
2021/07/02 13:20:56;;;;;;;7.68;6.22;;;;;;;;;;5135902;27;20182;-62
2021/07/02 13:23:25;;;;;;;7.32;6.63;;;;;;;;;;5135896;27;20201;-63
2021/07/02 13:26:10;;;;;;;8.55;6.28;;;;;;;;;;5135165;27;20286;-61
2021/07/02 13:28:39;;;;;;;7.65;6.00;;;;;;;;;;5135872;27;20198;-63
2021/07/02 13:31:21;;;;;;;8.48;7.00;;;;;;;;;;5135454;27;20202;-63
2021/07/02 13:34:04;;;;;;;10.32;6.88;;;;;;;;;;5135466;27;20281;-63
2021/07/02 13:36:33;;;;;;;7.55;6.55;;;;;;;;;;5135621;27;20236;-61
2021/07/02 13:39:05;;;;;;;8.65;6.75;;;;;;;;;;5135512;27;20202;-62
2021/07/02 13:41:33;;;;;;;9.85;6.85;;;;;;;;;;5135632;27;20229;-61
2021/07/02 13:44:05;;;;;;;7.80;6.47;;;;;;;;;;5135134;27;20605;-64
2021/07/02 13:46:34;;;;;;;7.72;6.35;;;;;;;;;;5135013;27;20282;-62
2021/07/02 13:49:04;;;;;;;7.70;6.70;;;;;;;;;;5133475;27;20207;-62
2021/07/02 13:51:32;;;;;;;8.95;7.05;;;;;;;;;;5114662;28;20182;-61
2021/07/02 13:54:04;;;;;;;7.57;5.97;;;;;;;;;;5114677;28;20230;-62
2021/07/02 13:56:33;;;;;;;5.95;5.35;;;;;;;;;;5114633;28;20190;-63
2021/07/02 13:59:01;;;;;;;6.70;5.95;;;;;;;;;;5114381;28;20729;-62
2021/07/02 14:01:34;;;;;;;8.50;7.10;;;;;;;;;;5113935;28;20237;-61
2021/07/02 14:04:04;;;;;;;8.43;6.90;;;;;;;;;;5114426;28;20598;-62
2021/07/02 14:06:32;;;;;;;8.27;6.70;;;;;;;;;;5114258;28;20246;-63
2021/07/02 14:09:00;;;;;;;7.75;6.75;;;;;;;;;;5114031;28;20294;-63
2021/07/02 14:11:28;;;;;;;8.95;7.00;;;;;;;;;;5113875;28;20209;-64
2021/07/02 14:13:57;;;;;;;10.52;8.07;;;;;;;;;;5114331;28;20206;-62
2021/07/02 14:16:25;;;;;;;9.55;7.85;;;;;;;;;;5114120;28;20290;-61
2021/07/02 14:18:53;;;;;;;9.40;7.55;;;;;;;;;;5113776;28;20203;-63
2021/07/02 14:21:28;;;;;;;8.85;7.35;;;;;;;;;;5113599;28;20651;-64
2021/07/02 14:23:56;;;;;;;9.27;7.75;;;;;;;;;;5114118;28;20309;-61
2021/07/02 14:26:24;;;;;;;6.95;6.22;;;;;;;;;;5113950;28;20201;-63
2021/07/02 14:28:53;;;;;;;8.35;7.45;;;;;;;;;;5113942;28;20195;-63
2021/07/02 14:31:21;;;;;;;9.82;7.65;;;;;;;;;;5113698;28;20298;-63
2021/07/02 14:33:50;;;;;;;9.48;8.48;;;;;;;;;;5113630;28;20222;-62
2021/07/02 14:36:18;;;;;;;7.65;6.95;;;;;;;;;;5113904;28;20619;-62
2021/07/02 14:38:48;;;;;;;8.60;7.65;;;;;;;;;;5113947;28;20206;-62
2021/07/02 14:41:16;;;;;;;7.75;6.95;;;;;;;;;;5113831;28;20332;-62
2021/07/02 14:43:44;;;;;;;9.57;8.40;;;;;;;;;;5113647;28;20215;-63
2021/07/02 14:46:12;;;;;;;8.50;7.60;;;;;;;;;;5113039;28;20203;-63
2021/07/02 14:48:42;;;;;;;8.15;7.30;;;;;;;;;;5114199;28;20195;-62